SKCG/CTG METAR and TAF weather

Enter ICAO airport designator
Station Type Date Time Source
SKCG METAR 2019/04/25 18:00 UTC NOAA

SKCG 251800Z 29009KT 220V320 9999 FEW015TCU 32/25 A2983 RMK TCU/NE


Station Type Date Time Source
SKCG Decoded METAR 2019/04/25 18:00 UTC NOAA

Cartagena / Rafael Nunez, Colombia (SKCG) 10-27N 075-31W 12M
Apr 25, 2019 - 02:00 PM EDT / 2019.04.25 1800 UTC
Wind: from the WNW (290 degrees) at 10 MPH (9 KT) (direction variable):0
Visibility: greater than 7 mile(s):0
Sky conditions: mostly clear
Weather: Towering cumulus clouds observed
Temperature: 89 F (32 C)
Heat index: 100.6 F (38.1 C):1
Dew Point: 77 F (25 C)
Relative Humidity: 66%
Pressure (altimeter): 29.83 in. Hg (1010 hPa)
ob: SKCG 251800Z 29009KT 220V320 9999 FEW015TCU 32/25 A2983 RMK TCU/NE
cycle: 18

Station Type Date Time Source
SKCG TAF 2019/04/25 18:40 UTC NOAA

TAF SKCG 251630Z 2518/2618 32015KT 9999 FEW015
TEMPO 2521/2523 8000 TS SCT017CB
BECMG 2602/2604 03005KT
TEMPO 2610/2612 7000 VCFG SCT010 TX33/2518Z TN25/2611Z

Example: see airport list